sensor_id;sensor_type;location;lat;lon;timestamp;P1;durP1;ratioP1;P2;durP2;ratioP2
39452;SDS011;25154;-33.684;151.102;2022-10-31T00:01:55;1.73;;;0.68;;
39452;SDS011;25154;-33.684;151.102;2022-10-31T00:06:57;1.00;;;0.57;;
39452;SDS011;25154;-33.684;151.102;2022-10-31T00:11:59;2.58;;;0.85;;
39452;SDS011;25154;-33.684;151.102;2022-10-31T00:17:02;0.73;;;0.40;;
39452;SDS011;25154;-33.684;151.102;2022-10-31T00:22:04;2.03;;;0.57;;
39452;SDS011;25154;-33.684;151.102;2022-10-31T00:27:06;2.50;;;0.90;;
39452;SDS011;25154;-33.684;151.102;2022-10-31T00:32:08;2.13;;;0.90;;
39452;SDS011;25154;-33.684;151.102;2022-10-31T00:37:11;1.70;;;0.70;;
39452;SDS011;25154;-33.684;151.102;2022-10-31T00:42:13;2.47;;;0.60;;
39452;SDS011;25154;-33.684;151.102;2022-10-31T00:47:15;1.65;;;0.68;;
39452;SDS011;25154;-33.684;151.102;2022-10-31T00:52:18;1.13;;;0.70;;
39452;SDS011;25154;-33.684;151.102;2022-10-31T00:57:20;2.05;;;0.80;;
39452;SDS011;25154;-33.684;151.102;2022-10-31T01:02:22;1.15;;;0.50;;
39452;SDS011;25154;-33.684;151.102;2022-10-31T01:07:25;3.15;;;0.70;;
39452;SDS011;25154;-33.684;151.102;2022-10-31T01:12:27;0.73;;;0.63;;
39452;SDS011;25154;-33.684;151.102;2022-10-31T01:17:29;1.25;;;0.63;;
39452;SDS011;25154;-33.684;151.102;2022-10-31T01:22:32;1.98;;;0.80;;
39452;SDS011;25154;-33.684;151.102;2022-10-31T01:27:35;3.35;;;0.88;;
39452;SDS011;25154;-33.684;151.102;2022-10-31T01:32:38;2.40;;;0.77;;
39452;SDS011;25154;-33.684;151.102;2022-10-31T01:37:42;2.08;;;0.60;;
39452;SDS011;25154;-33.684;151.102;2022-10-31T01:42:44;1.25;;;0.70;;
39452;SDS011;25154;-33.684;151.102;2022-10-31T01:47:47;2.65;;;0.70;;
39452;SDS011;25154;-33.684;151.102;2022-10-31T01:52:50;1.52;;;0.82;;
39452;SDS011;25154;-33.684;151.102;2022-10-31T01:57:55;0.70;;;0.50;;
39452;SDS011;25154;-33.684;151.102;2022-10-31T02:03:03;4.75;;;0.73;;
39452;SDS011;25154;-33.684;151.102;2022-10-31T02:13:08;3.80;;;0.60;;
39452;SDS011;25154;-33.684;151.102;2022-10-31T02:18:11;3.20;;;0.60;;
39452;SDS011;25154;-33.684;151.102;2022-10-31T02:23:21;1.00;;;0.70;;
39452;SDS011;25154;-33.684;151.102;2022-10-31T02:34:12;1.10;;;0.65;;
39452;SDS011;25154;-33.684;151.102;2022-10-31T02:39:48;3.00;;;0.70;;
39452;SDS011;25154;-33.684;151.102;2022-10-31T02:50:19;3.00;;;0.70;;
39452;SDS011;25154;-33.684;151.102;2022-10-31T03:00:30;1.60;;;0.50;;
39452;SDS011;25154;-33.684;151.102;2022-10-31T03:11:21;3.85;;;0.70;;
39452;SDS011;25154;-33.684;151.102;2022-10-31T03:16:47;1.00;;;0.60;;
39452;SDS011;25154;-33.684;151.102;2022-10-31T03:22:15;0.50;;;0.50;;
39452;SDS011;25154;-33.684;151.102;2022-10-31T03:27:15;0.47;;;0.40;;
39452;SDS011;25154;-33.684;151.102;2022-10-31T03:32:23;0.40;;;0.40;;
39452;SDS011;25154;-33.684;151.102;2022-10-31T03:37:29;0.77;;;0.30;;
39452;SDS011;25154;-33.684;151.102;2022-10-31T03:42:36;0.60;;;0.50;;
39452;SDS011;25154;-33.684;151.102;2022-10-31T03:47:42;0.38;;;0.38;;
39452;SDS011;25154;-33.684;151.102;2022-10-31T03:52:47;0.38;;;0.30;;
39452;SDS011;25154;-33.684;151.102;2022-10-31T03:58:12;0.30;;;0.30;;
39452;SDS011;25154;-33.684;151.102;2022-10-31T04:03:37;0.80;;;0.52;;
39452;SDS011;25154;-33.684;151.102;2022-10-31T04:09:01;1.67;;;0.43;;
39452;SDS011;25154;-33.684;151.102;2022-10-31T04:14:04;0.73;;;0.40;;
39452;SDS011;25154;-33.684;151.102;2022-10-31T04:19:07;0.43;;;0.43;;
39452;SDS011;25154;-33.684;151.102;2022-10-31T04:24:10;0.68;;;0.40;;
39452;SDS011;25154;-33.684;151.102;2022-10-31T04:29:12;0.70;;;0.40;;
39452;SDS011;25154;-33.684;151.102;2022-10-31T04:34:14;0.88;;;0.45;;
39452;SDS011;25154;-33.684;151.102;2022-10-31T04:39:21;1.35;;;0.57;;
39452;SDS011;25154;-33.684;151.102;2022-10-31T04:44:24;1.25;;;0.90;;
39452;SDS011;25154;-33.684;151.102;2022-10-31T04:49:27;0.52;;;0.45;;
39452;SDS011;25154;-33.684;151.102;2022-10-31T04:54:32;0.70;;;0.57;;
39452;SDS011;25154;-33.684;151.102;2022-10-31T04:59:35;0.70;;;0.40;;
39452;SDS011;25154;-33.684;151.102;2022-10-31T05:04:38;0.43;;;0.40;;
39452;SDS011;25154;-33.684;151.102;2022-10-31T05:09:41;0.82;;;0.50;;
39452;SDS011;25154;-33.684;151.102;2022-10-31T05:14:43;0.43;;;0.30;;
39452;SDS011;25154;-33.684;151.102;2022-10-31T05:19:46;2.00;;;0.60;;
39452;SDS011;25154;-33.684;151.102;2022-10-31T05:24:49;0.55;;;0.55;;
39452;SDS011;25154;-33.684;151.102;2022-10-31T05:29:51;0.40;;;0.40;;
39452;SDS011;25154;-33.684;151.102;2022-10-31T05:34:55;0.60;;;0.43;;
39452;SDS011;25154;-33.684;151.102;2022-10-31T05:39:57;0.65;;;0.47;;
39452;SDS011;25154;-33.684;151.102;2022-10-31T05:44:59;0.52;;;0.52;;
39452;SDS011;25154;-33.684;151.102;2022-10-31T05:50:07;0.95;;;0.70;;
39452;SDS011;25154;-33.684;151.102;2022-10-31T05:55:10;0.50;;;0.50;;
39452;SDS011;25154;-33.684;151.102;2022-10-31T06:00:13;0.65;;;0.60;;
39452;SDS011;25154;-33.684;151.102;2022-10-31T06:05:15;0.88;;;0.52;;
39452;SDS011;25154;-33.684;151.102;2022-10-31T06:10:17;1.20;;;0.50;;
39452;SDS011;25154;-33.684;151.102;2022-10-31T06:15:21;1.00;;;0.70;;
39452;SDS011;25154;-33.684;151.102;2022-10-31T06:20:23;0.85;;;0.57;;
39452;SDS011;25154;-33.684;151.102;2022-10-31T06:25:26;3.08;;;0.70;;
39452;SDS011;25154;-33.684;151.102;2022-10-31T06:30:30;0.70;;;0.68;;
39452;SDS011;25154;-33.684;151.102;2022-10-31T06:35:34;0.45;;;0.43;;
39452;SDS011;25154;-33.684;151.102;2022-10-31T06:40:36;1.98;;;0.75;;
39452;SDS011;25154;-33.684;151.102;2022-10-31T06:45:38;1.33;;;0.70;;
39452;SDS011;25154;-33.684;151.102;2022-10-31T06:50:40;1.38;;;0.60;;
39452;SDS011;25154;-33.684;151.102;2022-10-31T06:55:43;0.60;;;0.50;;
39452;SDS011;25154;-33.684;151.102;2022-10-31T07:00:45;1.08;;;0.70;;
39452;SDS011;25154;-33.684;151.102;2022-10-31T07:05:47;1.65;;;0.80;;
39452;SDS011;25154;-33.684;151.102;2022-10-31T07:10:53;0.73;;;0.63;;
39452;SDS011;25154;-33.684;151.102;2022-10-31T07:16:00;0.80;;;0.68;;
39452;SDS011;25154;-33.684;151.102;2022-10-31T07:21:04;0.82;;;0.70;;
39452;SDS011;25154;-33.684;151.102;2022-10-31T07:26:07;0.77;;;0.73;;
39452;SDS011;25154;-33.684;151.102;2022-10-31T07:31:10;0.65;;;0.60;;
39452;SDS011;25154;-33.684;151.102;2022-10-31T07:36:12;1.73;;;0.80;;
39452;SDS011;25154;-33.684;151.102;2022-10-31T07:41:16;0.77;;;0.65;;
39452;SDS011;25154;-33.684;151.102;2022-10-31T07:46:18;1.85;;;0.90;;
39452;SDS011;25154;-33.684;151.102;2022-10-31T07:51:20;1.35;;;0.70;;
39452;SDS011;25154;-33.684;151.102;2022-10-31T07:56:24;0.90;;;0.70;;
39452;SDS011;25154;-33.684;151.102;2022-10-31T08:01:26;1.65;;;0.70;;
39452;SDS011;25154;-33.684;151.102;2022-10-31T08:06:29;0.75;;;0.70;;
39452;SDS011;25154;-33.684;151.102;2022-10-31T08:11:31;3.90;;;1.00;;
39452;SDS011;25154;-33.684;151.102;2022-10-31T08:16:33;2.47;;;1.00;;
39452;SDS011;25154;-33.684;151.102;2022-10-31T08:21:36;1.15;;;0.77;;
39452;SDS011;25154;-33.684;151.102;2022-10-31T08:26:38;0.75;;;0.70;;
39452;SDS011;25154;-33.684;151.102;2022-10-31T08:31:41;1.58;;;1.00;;
39452;SDS011;25154;-33.684;151.102;2022-10-31T08:36:43;1.33;;;0.70;;
39452;SDS011;25154;-33.684;151.102;2022-10-31T08:41:46;0.98;;;0.70;;
39452;SDS011;25154;-33.684;151.102;2022-10-31T08:46:48;3.08;;;0.57;;
39452;SDS011;25154;-33.684;151.102;2022-10-31T08:51:51;2.20;;;0.77;;
39452;SDS011;25154;-33.684;151.102;2022-10-31T08:56:54;1.40;;;0.80;;
39452;SDS011;25154;-33.684;151.102;2022-10-31T09:01:56;1.70;;;0.73;;
39452;SDS011;25154;-33.684;151.102;2022-10-31T09:06:59;0.60;;;0.60;;
39452;SDS011;25154;-33.684;151.102;2022-10-31T09:12:01;0.60;;;0.60;;
39452;SDS011;25154;-33.684;151.102;2022-10-31T09:17:03;1.25;;;0.80;;
39452;SDS011;25154;-33.684;151.102;2022-10-31T09:22:06;0.90;;;0.77;;
39452;SDS011;25154;-33.684;151.102;2022-10-31T09:27:08;2.58;;;0.60;;
39452;SDS011;25154;-33.684;151.102;2022-10-31T09:32:10;0.60;;;0.50;;
39452;SDS011;25154;-33.684;151.102;2022-10-31T09:37:13;1.17;;;0.60;;
39452;SDS011;25154;-33.684;151.102;2022-10-31T09:42:32;1.65;;;0.80;;
39452;SDS011;25154;-33.684;151.102;2022-10-31T09:53:00;0.77;;;0.57;;
39452;SDS011;25154;-33.684;151.102;2022-10-31T09:58:08;0.80;;;0.52;;
39452;SDS011;25154;-33.684;151.102;2022-10-31T10:03:38;3.05;;;0.60;;
39452;SDS011;25154;-33.684;151.102;2022-10-31T10:08:45;1.48;;;0.88;;
39452;SDS011;25154;-33.684;151.102;2022-10-31T10:13:53;1.50;;;0.73;;
39452;SDS011;25154;-33.684;151.102;2022-10-31T10:19:24;1.45;;;0.70;;
39452;SDS011;25154;-33.684;151.102;2022-10-31T10:30:23;1.55;;;0.60;;
39452;SDS011;25154;-33.684;151.102;2022-10-31T10:35:46;0.80;;;0.70;;
39452;SDS011;25154;-33.684;151.102;2022-10-31T10:40:54;0.70;;;0.70;;
39452;SDS011;25154;-33.684;151.102;2022-10-31T10:51:35;1.70;;;0.80;;
39452;SDS011;25154;-33.684;151.102;2022-10-31T11:02:26;0.80;;;0.70;;
39452;SDS011;25154;-33.684;151.102;2022-10-31T11:07:38;1.35;;;0.70;;
39452;SDS011;25154;-33.684;151.102;2022-10-31T11:12:42;1.58;;;0.80;;
39452;SDS011;25154;-33.684;151.102;2022-10-31T11:17:47;0.65;;;0.60;;
39452;SDS011;25154;-33.684;151.102;2022-10-31T11:23:00;1.53;;;0.63;;
39452;SDS011;25154;-33.684;151.102;2022-10-31T11:28:21;1.23;;;0.70;;
39452;SDS011;25154;-33.684;151.102;2022-10-31T11:38:50;0.95;;;0.70;;
39452;SDS011;25154;-33.684;151.102;2022-10-31T11:49:02;1.13;;;0.70;;
39452;SDS011;25154;-33.684;151.102;2022-10-31T11:54:22;1.33;;;0.80;;
39452;SDS011;25154;-33.684;151.102;2022-10-31T11:59:31;2.50;;;0.82;;
39452;SDS011;25154;-33.684;151.102;2022-10-31T12:04:38;1.00;;;0.80;;
39452;SDS011;25154;-33.684;151.102;2022-10-31T12:09:44;1.70;;;0.93;;
39452;SDS011;25154;-33.684;151.102;2022-10-31T12:30:30;1.20;;;0.90;;
39452;SDS011;25154;-33.684;151.102;2022-10-31T12:35:56;2.38;;;1.00;;
39452;SDS011;25154;-33.684;151.102;2022-10-31T12:41:29;1.25;;;0.90;;
39452;SDS011;25154;-33.684;151.102;2022-10-31T12:52:26;1.77;;;1.00;;
39452;SDS011;25154;-33.684;151.102;2022-10-31T12:57:52;1.58;;;1.00;;
39452;SDS011;25154;-33.684;151.102;2022-10-31T13:08:24;1.80;;;1.05;;
39452;SDS011;25154;-33.684;151.102;2022-10-31T13:19:04;1.95;;;1.00;;
39452;SDS011;25154;-33.684;151.102;2022-10-31T13:24:10;2.03;;;0.90;;
39452;SDS011;25154;-33.684;151.102;2022-10-31T13:29:19;1.48;;;0.88;;
39452;SDS011;25154;-33.684;151.102;2022-10-31T13:45:11;1.80;;;0.80;;
39452;SDS011;25154;-33.684;151.102;2022-10-31T13:55:44;1.90;;;1.00;;
39452;SDS011;25154;-33.684;151.102;2022-10-31T14:06:15;0.73;;;0.60;;
39452;SDS011;25154;-33.684;151.102;2022-10-31T14:11:26;2.20;;;0.85;;
39452;SDS011;25154;-33.684;151.102;2022-10-31T14:16:30;2.40;;;0.80;;
39452;SDS011;25154;-33.684;151.102;2022-10-31T14:21:38;2.30;;;0.70;;
39452;SDS011;25154;-33.684;151.102;2022-10-31T14:27:46;1.13;;;0.90;;
39452;SDS011;25154;-33.684;151.102;2022-10-31T14:32:23;1.10;;;0.82;;
39452;SDS011;25154;-33.684;151.102;2022-10-31T14:53:50;0.70;;;0.70;;
39452;SDS011;25154;-33.684;151.102;2022-10-31T14:58:57;1.35;;;0.70;;
39452;SDS011;25154;-33.684;151.102;2022-10-31T15:04:13;1.15;;;0.80;;
39452;SDS011;25154;-33.684;151.102;2022-10-31T15:09:25;1.73;;;0.70;;
39452;SDS011;25154;-33.684;151.102;2022-10-31T15:14:30;0.85;;;0.70;;
39452;SDS011;25154;-33.684;151.102;2022-10-31T15:19:33;0.75;;;0.60;;
39452;SDS011;25154;-33.684;151.102;2022-10-31T15:24:38;1.38;;;0.80;;
39452;SDS011;25154;-33.684;151.102;2022-10-31T15:29:50;1.05;;;0.63;;
39452;SDS011;25154;-33.684;151.102;2022-10-31T15:34:55;2.80;;;0.80;;
39452;SDS011;25154;-33.684;151.102;2022-10-31T15:40:05;0.82;;;0.63;;
39452;SDS011;25154;-33.684;151.102;2022-10-31T15:50:20;0.90;;;0.60;;
39452;SDS011;25154;-33.684;151.102;2022-10-31T15:55:47;1.70;;;0.60;;
39452;SDS011;25154;-33.684;151.102;2022-10-31T16:01:02;0.80;;;0.60;;
39452;SDS011;25154;-33.684;151.102;2022-10-31T16:06:18;1.38;;;0.60;;
39452;SDS011;25154;-33.684;151.102;2022-10-31T16:11:32;2.60;;;0.70;;
39452;SDS011;25154;-33.684;151.102;2022-10-31T16:16:42;1.05;;;0.70;;
39452;SDS011;25154;-33.684;151.102;2022-10-31T16:21:52;1.85;;;0.70;;
39452;SDS011;25154;-33.684;151.102;2022-10-31T16:27:04;1.17;;;0.68;;
39452;SDS011;25154;-33.684;151.102;2022-10-31T16:37:53;1.75;;;0.80;;
39452;SDS011;25154;-33.684;151.102;2022-10-31T16:42:56;2.15;;;0.73;;
39452;SDS011;25154;-33.684;151.102;2022-10-31T16:48:04;2.28;;;0.70;;
39452;SDS011;25154;-33.684;151.102;2022-10-31T16:53:16;2.28;;;0.60;;
39452;SDS011;25154;-33.684;151.102;2022-10-31T16:58:25;1.75;;;0.98;;
39452;SDS011;25154;-33.684;151.102;2022-10-31T17:03:33;1.27;;;0.68;;
39452;SDS011;25154;-33.684;151.102;2022-10-31T17:08:36;1.42;;;0.65;;
39452;SDS011;25154;-33.684;151.102;2022-10-31T17:13:38;1.42;;;0.60;;
39452;SDS011;25154;-33.684;151.102;2022-10-31T17:18:40;2.63;;;0.70;;
39452;SDS011;25154;-33.684;151.102;2022-10-31T17:23:47;1.43;;;0.80;;
39452;SDS011;25154;-33.684;151.102;2022-10-31T17:28:49;1.60;;;0.70;;
39452;SDS011;25154;-33.684;151.102;2022-10-31T17:33:53;2.28;;;0.70;;
39452;SDS011;25154;-33.684;151.102;2022-10-31T17:38:56;1.58;;;0.65;;
39452;SDS011;25154;-33.684;151.102;2022-10-31T17:43:59;0.82;;;0.65;;
39452;SDS011;25154;-33.684;151.102;2022-10-31T17:49:02;2.22;;;0.90;;
39452;SDS011;25154;-33.684;151.102;2022-10-31T17:54:07;0.55;;;0.50;;
39452;SDS011;25154;-33.684;151.102;2022-10-31T17:59:10;0.90;;;0.60;;
39452;SDS011;25154;-33.684;151.102;2022-10-31T18:04:12;0.88;;;0.60;;
39452;SDS011;25154;-33.684;151.102;2022-10-31T18:09:15;1.77;;;0.60;;
39452;SDS011;25154;-33.684;151.102;2022-10-31T18:14:17;1.02;;;0.60;;
39452;SDS011;25154;-33.684;151.102;2022-10-31T18:19:19;0.80;;;0.40;;
39452;SDS011;25154;-33.684;151.102;2022-10-31T18:24:22;2.28;;;0.50;;
39452;SDS011;25154;-33.684;151.102;2022-10-31T18:29:24;2.33;;;0.40;;
39452;SDS011;25154;-33.684;151.102;2022-10-31T18:34:26;0.30;;;0.30;;
39452;SDS011;25154;-33.684;151.102;2022-10-31T18:39:29;0.25;;;0.25;;
39452;SDS011;25154;-33.684;151.102;2022-10-31T18:44:31;1.00;;;0.40;;
39452;SDS011;25154;-33.684;151.102;2022-10-31T18:49:33;2.60;;;0.35;;
39452;SDS011;25154;-33.684;151.102;2022-10-31T18:54:36;0.40;;;0.40;;
39452;SDS011;25154;-33.684;151.102;2022-10-31T18:59:38;1.98;;;0.57;;
39452;SDS011;25154;-33.684;151.102;2022-10-31T19:04:40;3.13;;;0.52;;
39452;SDS011;25154;-33.684;151.102;2022-10-31T19:09:43;0.35;;;0.30;;
39452;SDS011;25154;-33.684;151.102;2022-10-31T19:14:45;3.63;;;0.55;;
39452;SDS011;25154;-33.684;151.102;2022-10-31T19:19:48;0.30;;;0.30;;
39452;SDS011;25154;-33.684;151.102;2022-10-31T19:24:51;0.98;;;0.47;;
39452;SDS011;25154;-33.684;151.102;2022-10-31T19:29:53;1.90;;;0.85;;
39452;SDS011;25154;-33.684;151.102;2022-10-31T19:34:55;0.30;;;0.30;;
39452;SDS011;25154;-33.684;151.102;2022-10-31T19:39:58;0.95;;;0.40;;
39452;SDS011;25154;-33.684;151.102;2022-10-31T19:45:00;0.50;;;0.50;;
39452;SDS011;25154;-33.684;151.102;2022-10-31T19:50:03;4.63;;;1.45;;
39452;SDS011;25154;-33.684;151.102;2022-10-31T19:55:06;3.05;;;0.60;;
39452;SDS011;25154;-33.684;151.102;2022-10-31T20:00:08;0.77;;;0.32;;
39452;SDS011;25154;-33.684;151.102;2022-10-31T20:05:11;2.75;;;0.50;;
39452;SDS011;25154;-33.684;151.102;2022-10-31T20:10:13;1.00;;;0.40;;
39452;SDS011;25154;-33.684;151.102;2022-10-31T20:15:16;9.18;;;0.63;;
39452;SDS011;25154;-33.684;151.102;2022-10-31T20:20:19;2.03;;;0.30;;
39452;SDS011;25154;-33.684;151.102;2022-10-31T20:25:21;0.40;;;0.40;;
39452;SDS011;25154;-33.684;151.102;2022-10-31T20:30:23;0.40;;;0.40;;
39452;SDS011;25154;-33.684;151.102;2022-10-31T20:35:26;0.30;;;0.30;;
39452;SDS011;25154;-33.684;151.102;2022-10-31T20:40:28;2.00;;;0.30;;
39452;SDS011;25154;-33.684;151.102;2022-10-31T20:45:31;2.45;;;0.60;;
39452;SDS011;25154;-33.684;151.102;2022-10-31T20:50:33;1.25;;;0.40;;
39452;SDS011;25154;-33.684;151.102;2022-10-31T20:55:38;0.30;;;0.30;;
39452;SDS011;25154;-33.684;151.102;2022-10-31T21:00:41;0.93;;;0.50;;
39452;SDS011;25154;-33.684;151.102;2022-10-31T21:05:50;0.30;;;0.30;;
39452;SDS011;25154;-33.684;151.102;2022-10-31T21:11:03;0.30;;;0.30;;
39452;SDS011;25154;-33.684;151.102;2022-10-31T21:16:14;0.38;;;0.38;;
39452;SDS011;25154;-33.684;151.102;2022-10-31T21:21:19;0.85;;;0.40;;
39452;SDS011;25154;-33.684;151.102;2022-10-31T21:26:25;0.80;;;0.40;;
39452;SDS011;25154;-33.684;151.102;2022-10-31T21:31:28;1.25;;;0.40;;
39452;SDS011;25154;-33.684;151.102;2022-10-31T21:36:31;0.30;;;0.30;;
39452;SDS011;25154;-33.684;151.102;2022-10-31T21:41:34;0.30;;;0.30;;
39452;SDS011;25154;-33.684;151.102;2022-10-31T21:46:38;0.30;;;0.30;;
39452;SDS011;25154;-33.684;151.102;2022-10-31T21:51:40;0.35;;;0.35;;
39452;SDS011;25154;-33.684;151.102;2022-10-31T21:56:43;0.43;;;0.30;;
39452;SDS011;25154;-33.684;151.102;2022-10-31T22:01:47;0.40;;;0.40;;
39452;SDS011;25154;-33.684;151.102;2022-10-31T22:06:50;0.30;;;0.30;;
39452;SDS011;25154;-33.684;151.102;2022-10-31T22:11:52;0.30;;;0.30;;
39452;SDS011;25154;-33.684;151.102;2022-10-31T22:16:54;0.30;;;0.30;;
39452;SDS011;25154;-33.684;151.102;2022-10-31T22:21:57;0.20;;;0.20;;
39452;SDS011;25154;-33.684;151.102;2022-10-31T22:26:59;0.30;;;0.30;;
39452;SDS011;25154;-33.684;151.102;2022-10-31T22:32:01;1.60;;;0.40;;
39452;SDS011;25154;-33.684;151.102;2022-10-31T22:37:04;0.30;;;0.30;;
39452;SDS011;25154;-33.684;151.102;2022-10-31T22:42:06;0.30;;;0.30;;
39452;SDS011;25154;-33.684;151.102;2022-10-31T22:47:08;0.45;;;0.45;;
39452;SDS011;25154;-33.684;151.102;2022-10-31T22:52:11;0.20;;;0.20;;
39452;SDS011;25154;-33.684;151.102;2022-10-31T22:57:13;0.45;;;0.30;;
39452;SDS011;25154;-33.684;151.102;2022-10-31T23:02:15;0.28;;;0.28;;
39452;SDS011;25154;-33.684;151.102;2022-10-31T23:07:18;0.30;;;0.30;;
39452;SDS011;25154;-33.684;151.102;2022-10-31T23:12:20;0.65;;;0.30;;
39452;SDS011;25154;-33.684;151.102;2022-10-31T23:17:41;0.32;;;0.32;;
39452;SDS011;25154;-33.684;151.102;2022-10-31T23:22:43;0.30;;;0.30;;
39452;SDS011;25154;-33.684;151.102;2022-10-31T23:27:46;0.30;;;0.30;;
39452;SDS011;25154;-33.684;151.102;2022-10-31T23:32:48;0.20;;;0.20;;
39452;SDS011;25154;-33.684;151.102;2022-10-31T23:37:50;0.20;;;0.20;;
39452;SDS011;25154;-33.684;151.102;2022-10-31T23:42:53;0.90;;;0.32;;
39452;SDS011;25154;-33.684;151.102;2022-10-31T23:47:55;0.28;;;0.28;;
39452;SDS011;25154;-33.684;151.102;2022-10-31T23:52:57;0.28;;;0.28;;
39452;SDS011;25154;-33.684;151.102;2022-10-31T23:58:00;0.20;;;0.20;;
